createdAt,value
2019-04-29T00:01:56.919Z,7.60
2019-04-29T00:04:36.535Z,7.00
2019-04-29T00:07:10.464Z,7.00
2019-04-29T00:09:44.092Z,6.37
2019-04-29T00:12:17.971Z,6.70
2019-04-29T00:14:53.832Z,6.53
2019-04-29T00:17:32.175Z,8.48
2019-04-29T00:20:17.908Z,7.00
2019-04-29T00:22:52.961Z,6.72
2019-04-29T00:25:27.540Z,6.67
2019-04-29T00:28:01.163Z,7.90
2019-04-29T00:30:37.560Z,6.05
2019-04-29T00:33:11.124Z,6.97
2019-04-29T00:35:44.935Z,5.45
2019-04-29T00:38:20.080Z,5.28
2019-04-29T00:41:05.280Z,6.30
2019-04-29T00:43:38.541Z,5.47
2019-04-29T00:46:13.079Z,5.50
2019-04-29T00:48:46.632Z,6.08
2019-04-29T00:51:20.215Z,6.33
2019-04-29T00:53:55.383Z,5.25
2019-04-29T00:56:28.948Z,6.22
2019-04-29T00:59:02.535Z,5.67
2019-04-29T01:01:37.811Z,6.65
2019-04-29T01:04:11.321Z,5.87
2019-04-29T01:06:44.974Z,5.33
2019-04-29T01:09:18.754Z,5.10
2019-04-29T01:11:52.363Z,7.22
2019-04-29T01:14:29.014Z,4.75
2019-04-29T01:17:02.578Z,4.50
2019-04-29T01:19:36.151Z,5.95
2019-04-29T01:22:09.722Z,4.87
2019-04-29T01:24:43.384Z,5.67
2019-04-29T01:27:19.207Z,6.00
2019-04-29T01:29:53.712Z,3.27
2019-04-29T01:32:27.381Z,4.00
2019-04-29T01:35:01.005Z,3.67
2019-04-29T01:37:38.871Z,3.33
2019-04-29T01:40:15.722Z,3.45
2019-04-29T01:42:49.323Z,3.72
2019-04-29T01:45:22.900Z,3.70
2019-04-29T01:47:56.472Z,5.20
2019-04-29T01:50:30.202Z,3.92
2019-04-29T01:53:03.855Z,4.30
2019-04-29T01:55:37.483Z,5.33
2019-04-29T01:58:11.152Z,3.95
2019-04-29T02:00:44.868Z,4.10
2019-04-29T02:03:18.535Z,3.87
2019-04-29T02:05:52.115Z,5.60
2019-04-29T02:08:25.672Z,4.62
2019-04-29T02:11:00.265Z,5.42
2019-04-29T02:13:33.833Z,4.50
2019-04-29T02:16:09.235Z,4.20
2019-04-29T02:18:42.828Z,4.12
2019-04-29T02:21:16.525Z,3.92
2019-04-29T02:24:06.719Z,4.05
2019-04-29T02:26:40.511Z,4.22
2019-04-29T02:29:14.131Z,3.80
2019-04-29T02:31:48.514Z,4.28
2019-04-29T02:34:22.103Z,4.33
2019-04-29T02:36:56.271Z,4.65
2019-04-29T02:39:34.564Z,6.47
2019-04-29T02:42:25.751Z,5.33
2019-04-29T02:45:00.911Z,11.90
2019-04-29T02:47:34.684Z,6.22
2019-04-29T02:50:08.435Z,5.75
2019-04-29T02:52:43.549Z,7.75
2019-04-29T02:55:18.826Z,7.75
2019-04-29T02:57:54.083Z,6.95
2019-04-29T03:00:30.496Z,7.08
2019-04-29T03:03:08.396Z,8.50
2019-04-29T03:05:43.801Z,9.08
2019-04-29T03:08:17.494Z,9.53
2019-04-29T03:10:51.102Z,9.93
2019-04-29T03:13:24.638Z,11.75
2019-04-29T03:15:59.496Z,10.08
2019-04-29T03:18:34.779Z,9.20
2019-04-29T03:21:09.903Z,11.43
2019-04-29T03:23:44.559Z,11.75
2019-04-29T03:26:18.122Z,11.40
2019-04-29T03:28:51.804Z,15.15
2019-04-29T03:31:25.424Z,14.38
2019-04-29T03:34:00.124Z,11.60
2019-04-29T03:36:33.839Z,14.65
2019-04-29T03:39:07.875Z,15.58
2019-04-29T03:41:41.767Z,20.40
2019-04-29T03:44:15.527Z,12.37
2019-04-29T03:46:49.093Z,13.25
2019-04-29T03:49:24.781Z,13.18
2019-04-29T03:51:58.634Z,16.05
2019-04-29T03:54:32.275Z,11.63
2019-04-29T03:57:06.951Z,17.48
2019-04-29T03:59:41.177Z,13.50
2019-04-29T04:02:34.843Z,13.78
2019-04-29T04:05:10.530Z,11.45
2019-04-29T04:07:47.036Z,12.95
2019-04-29T04:10:20.778Z,10.80
2019-04-29T04:12:56.002Z,13.85
2019-04-29T04:15:29.660Z,12.88
2019-04-29T04:18:11.894Z,15.83
2019-04-29T04:20:45.628Z,13.90
2019-04-29T04:23:19.255Z,12.93
2019-04-29T04:25:53.359Z,11.93
2019-04-29T04:28:26.951Z,11.48
2019-04-29T04:31:00.631Z,12.73
2019-04-29T04:33:34.212Z,11.18
2019-04-29T04:36:07.951Z,14.63
2019-04-29T04:38:41.853Z,14.33
2019-04-29T04:41:15.605Z,14.25
2019-04-29T04:43:49.254Z,13.65
2019-04-29T04:46:23.302Z,12.25
2019-04-29T04:48:56.814Z,14.70
2019-04-29T04:51:31.439Z,15.10
2019-04-29T04:54:05.110Z,15.15
2019-04-29T04:56:57.039Z,15.78
2019-04-29T04:59:30.609Z,12.60
2019-04-29T05:02:04.444Z,15.23
2019-04-29T05:04:38.330Z,15.40
2019-04-29T05:07:11.949Z,16.77
2019-04-29T05:09:45.563Z,14.75
2019-04-29T05:12:21.044Z,17.48
2019-04-29T05:14:54.859Z,13.98
2019-04-29T05:17:28.464Z,17.07
2019-04-29T05:20:02.096Z,20.08
2019-04-29T05:22:35.709Z,14.53
2019-04-29T05:25:09.393Z,18.15
2019-04-29T05:27:44.588Z,20.85
2019-04-29T05:30:18.561Z,18.02
2019-04-29T05:32:52.175Z,18.60
2019-04-29T05:35:36.384Z,17.57
2019-04-29T05:38:12.772Z,19.23
2019-04-29T05:40:47.953Z,20.65
2019-04-29T05:43:26.998Z,20.57
2019-04-29T05:46:21.494Z,18.95
2019-04-29T05:48:55.603Z,21.62
2019-04-29T05:51:31.056Z,22.55
2019-04-29T05:54:09.726Z,21.17
2019-04-29T05:56:43.556Z,19.60
2019-04-29T05:59:17.341Z,27.48
2019-04-29T06:01:51.134Z,21.23
2019-04-29T06:04:24.871Z,26.15
2019-04-29T06:06:59.196Z,24.27
2019-04-29T06:09:32.842Z,27.40
2019-04-29T06:12:06.636Z,26.65
2019-04-29T06:14:40.706Z,23.73
2019-04-29T06:17:16.179Z,25.27
2019-04-29T06:19:52.451Z,27.77
2019-04-29T06:22:26.083Z,34.33
2019-04-29T06:24:59.844Z,36.25
2019-04-29T06:27:33.706Z,43.25
2019-04-29T06:30:09.123Z,39.88
2019-04-29T06:32:44.054Z,38.92
2019-04-29T06:35:17.826Z,38.55
2019-04-29T06:37:51.695Z,43.25
2019-04-29T06:40:25.563Z,38.53
2019-04-29T06:42:59.173Z,38.98
2019-04-29T06:45:32.832Z,40.78
2019-04-29T06:48:06.845Z,40.78
2019-04-29T06:50:40.846Z,41.00
2019-04-29T06:53:16.424Z,43.17
2019-04-29T06:55:50.766Z,38.83
2019-04-29T06:58:24.532Z,44.05
2019-04-29T07:01:01.203Z,46.88
2019-04-29T07:03:34.765Z,41.70
2019-04-29T07:06:08.784Z,44.63
2019-04-29T07:08:43.729Z,42.95
2019-04-29T07:11:24.626Z,36.83
2019-04-29T07:14:12.395Z,45.00
2019-04-29T07:16:46.137Z,48.17
2019-04-29T07:19:22.235Z,44.42
2019-04-29T07:21:56.627Z,39.18
2019-04-29T07:24:30.374Z,40.35
2019-04-29T07:27:05.122Z,55.75
2019-04-29T07:29:39.244Z,47.38
2019-04-29T07:32:12.888Z,49.75
2019-04-29T07:34:46.534Z,52.20
2019-04-29T07:37:20.264Z,52.00
2019-04-29T07:39:53.866Z,53.38
2019-04-29T07:42:33.255Z,44.08
2019-04-29T07:45:12.084Z,48.20
2019-04-29T07:47:56.327Z,46.10
2019-04-29T07:50:26.770Z,52.67
2019-04-29T07:52:58.710Z,58.25
2019-04-29T07:55:32.611Z,58.83
2019-04-29T07:58:06.386Z,56.77
2019-04-29T08:00:40.374Z,49.33
2019-04-29T08:03:14.199Z,42.35
2019-04-29T08:05:48.216Z,49.38
2019-04-29T08:08:24.522Z,54.53
2019-04-29T08:10:58.525Z,49.80
2019-04-29T08:13:34.284Z,49.00
2019-04-29T08:16:07.955Z,53.20
2019-04-29T08:18:41.923Z,45.75
2019-04-29T08:21:16.039Z,45.80
2019-04-29T08:23:51.554Z,38.63
2019-04-29T08:26:25.455Z,46.18
2019-04-29T08:29:00.725Z,43.00
2019-04-29T08:31:36.299Z,40.52
2019-04-29T08:34:09.981Z,40.80
2019-04-29T08:50:57.213Z,45.23
2019-04-29T08:53:31.331Z,49.67
2019-04-29T08:56:05.661Z,43.33
2019-04-29T08:58:44.078Z,40.05
2019-04-29T09:01:15.924Z,39.98
2019-04-29T09:03:53.761Z,40.05
2019-04-29T09:06:27.826Z,40.63
2019-04-29T09:09:04.930Z,51.53
2019-04-29T09:11:39.044Z,41.95
2019-04-29T09:14:13.043Z,45.55
2019-04-29T09:23:49.335Z,40.83
2019-04-29T09:26:33.565Z,35.98
2019-04-29T09:29:25.128Z,48.95
2019-04-29T09:31:58.881Z,40.40
2019-04-29T09:34:32.476Z,43.63
2019-04-29T09:37:06.288Z,47.55
2019-04-29T09:39:43.364Z,49.08
2019-04-29T09:42:33.760Z,45.17
2019-04-29T09:45:22.090Z,48.85
2019-04-29T09:47:54.964Z,55.98
2019-04-29T09:50:28.706Z,53.90
2019-04-29T09:53:02.345Z,56.40
2019-04-29T09:55:40.107Z,53.15
2019-04-29T09:58:11.569Z,45.58
2019-04-29T10:00:47.227Z,50.73
2019-04-29T10:03:27.705Z,47.05
2019-04-29T10:06:17.167Z,44.15
2019-04-29T10:08:50.964Z,51.58
2019-04-29T10:11:24.875Z,44.75
2019-04-29T10:13:58.539Z,42.60
2019-04-29T10:16:35.894Z,40.33
2019-04-29T10:19:11.987Z,35.60
2019-04-29T10:21:45.683Z,37.23
2019-04-29T10:24:19.284Z,36.53
2019-04-29T10:26:54.542Z,40.58
2019-04-29T10:29:33.175Z,35.35
2019-04-29T10:32:09.005Z,37.67
2019-04-29T10:34:43.896Z,40.03
2019-04-29T10:37:18.544Z,39.13
2019-04-29T10:39:52.319Z,36.50
2019-04-29T10:42:31.534Z,38.25
2019-04-29T10:45:21.707Z,36.80
2019-04-29T10:48:02.919Z,33.78
2019-04-29T10:50:38.182Z,37.53
2019-04-29T10:53:15.505Z,35.63
2019-04-29T10:55:47.451Z,32.83
2019-04-29T10:58:26.630Z,30.80
2019-04-29T11:01:21.194Z,36.10
2019-04-29T11:03:55.906Z,35.73
2019-04-29T11:06:31.404Z,34.85
2019-04-29T11:09:14.508Z,29.82
2019-04-29T11:11:47.480Z,28.35
2019-04-29T11:14:21.147Z,33.58
2019-04-29T11:16:55.815Z,29.48
2019-04-29T11:19:30.652Z,36.65
2019-04-29T11:22:07.382Z,26.85
2019-04-29T11:25:01.663Z,27.15
2019-04-29T11:27:39.597Z,28.25
2019-04-29T11:30:14.872Z,27.05
2019-04-29T11:33:07.362Z,32.75
2019-04-29T11:35:46.018Z,37.10
2019-04-29T11:38:21.135Z,32.55
2019-04-29T11:40:57.294Z,28.42
2019-04-29T11:43:31.374Z,34.13
2019-04-29T11:46:10.018Z,39.83
2019-04-29T11:48:42.762Z,31.12
2019-04-29T11:51:21.136Z,36.15
2019-04-29T11:53:55.204Z,25.40
2019-04-29T11:56:28.982Z,28.80
2019-04-29T11:59:14.724Z,25.77
2019-04-29T12:01:59.690Z,25.17
2019-04-29T12:04:35.341Z,21.70
2019-04-29T12:07:09.689Z,21.50
2019-04-29T12:09:44.007Z,19.23
2019-04-29T12:12:20.313Z,22.07
2019-04-29T12:14:58.968Z,20.27
2019-04-29T12:17:40.203Z,24.23
2019-04-29T12:20:33.485Z,27.45
2019-04-29T12:23:11.060Z,25.00
2019-04-29T12:25:42.828Z,26.42
2019-04-29T12:28:19.103Z,24.77
2019-04-29T12:30:54.235Z,23.45
2019-04-29T12:33:32.423Z,25.85
2019-04-29T12:36:08.495Z,22.48
2019-04-29T12:38:48.696Z,27.00
2019-04-29T12:41:30.354Z,26.87
2019-04-29T12:44:03.516Z,27.45
2019-04-29T12:46:38.820Z,19.75
2019-04-29T12:49:13.838Z,27.52
2019-04-29T12:51:47.882Z,21.45
2019-04-29T12:54:21.519Z,23.62
2019-04-29T12:56:55.453Z,20.55
2019-04-29T12:59:30.644Z,24.05
2019-04-29T13:02:15.006Z,27.32
2019-04-29T13:04:59.404Z,29.23
2019-04-29T13:07:43.443Z,27.52
2019-04-29T13:10:19.324Z,32.78
2019-04-29T13:12:53.012Z,28.83
2019-04-29T13:15:38.622Z,36.38
2019-04-29T13:18:22.801Z,31.23
2019-04-29T13:20:52.182Z,25.40
2019-04-29T13:23:34.866Z,32.60
2019-04-29T13:26:00.228Z,32.85
2019-04-29T13:28:34.660Z,23.60
2019-04-29T13:31:09.659Z,28.75
2019-04-29T13:33:45.940Z,27.82
2019-04-29T13:36:26.051Z,29.02
2019-04-29T13:38:55.300Z,33.98
2019-04-29T13:41:29.026Z,34.60
2019-04-29T13:44:05.607Z,37.80
2019-04-29T13:46:46.214Z,65.57
2019-04-29T13:49:28.765Z,35.78
2019-04-29T13:52:03.976Z,35.88
2019-04-29T13:54:42.261Z,28.32
2019-04-29T13:57:15.969Z,33.20
2019-04-29T13:59:55.604Z,27.17
2019-04-29T14:02:37.097Z,50.60
2019-04-29T14:05:15.781Z,32.80
2019-04-29T14:07:52.669Z,29.65
2019-04-29T14:10:26.054Z,28.85
2019-04-29T14:13:09.904Z,29.45
2019-04-29T14:15:40.018Z,27.15
2019-04-29T14:18:12.040Z,33.90
2019-04-29T14:20:51.816Z,38.63
2019-04-29T14:23:24.650Z,42.85
2019-04-29T14:25:58.522Z,39.55
2019-04-29T14:28:32.257Z,30.62
2019-04-29T14:31:05.984Z,28.50
2019-04-29T14:33:41.566Z,27.02
2019-04-29T14:36:15.346Z,23.18
2019-04-29T14:38:52.402Z,27.25
2019-04-29T14:41:27.598Z,22.60
2019-04-29T14:44:03.095Z,34.23
2019-04-29T14:46:56.159Z,32.13
2019-04-29T14:49:35.419Z,37.75
2019-04-29T14:52:13.135Z,32.60
2019-04-29T14:54:46.190Z,45.33
2019-04-29T14:57:19.710Z,46.35
2019-04-29T14:59:54.058Z,49.15
2019-04-29T15:02:28.537Z,49.58
2019-04-29T15:05:02.289Z,47.80
2019-04-29T15:07:37.335Z,42.80
2019-04-29T15:10:11.571Z,52.65
2019-04-29T15:13:11.858Z,56.68
2019-04-29T15:15:38.625Z,41.53
2019-04-29T15:18:23.811Z,34.18
2019-04-29T15:20:56.301Z,40.83
2019-04-29T15:23:32.783Z,56.10
2019-04-29T15:26:05.473Z,49.30
2019-04-29T15:28:54.093Z,33.25
2019-04-29T15:31:28.135Z,36.88
2019-04-29T15:34:08.924Z,43.50
2019-04-29T15:36:42.049Z,37.03
2019-04-29T15:39:18.159Z,41.92
2019-04-29T15:41:54.679Z,40.25
2019-04-29T15:44:28.453Z,45.12
2019-04-29T15:47:04.211Z,36.60
2019-04-29T15:49:37.734Z,51.33
2019-04-29T15:52:11.388Z,189.65
2019-04-29T15:54:45.895Z,116.03
2019-04-29T15:57:20.826Z,57.75
2019-04-29T16:00:00.052Z,169.40
2019-04-29T16:02:29.811Z,42.67
2019-04-29T16:05:14.770Z,44.88
2019-04-29T16:07:51.515Z,46.02
2019-04-29T16:10:39.515Z,54.98
2019-04-29T16:13:27.839Z,64.50
2019-04-29T16:15:58.665Z,49.23
2019-04-29T16:18:36.031Z,44.13
2019-04-29T16:21:09.725Z,101.92
2019-04-29T16:23:43.354Z,50.03
2019-04-29T16:26:17.941Z,51.63
2019-04-29T16:28:51.992Z,53.70
2019-04-29T16:31:25.772Z,53.13
2019-04-29T16:33:59.518Z,52.08
2019-04-29T16:36:33.121Z,45.80
2019-04-29T16:39:08.330Z,49.63
2019-04-29T16:41:51.001Z,44.03
2019-04-29T16:44:35.812Z,50.10
2019-04-29T16:47:00.335Z,58.95
2019-04-29T16:49:33.942Z,75.72
2019-04-29T16:52:07.460Z,60.30
2019-04-29T16:54:42.625Z,87.78
2019-04-29T16:57:16.297Z,71.37
2019-04-29T16:59:50.451Z,63.00
2019-04-29T17:02:25.336Z,107.07
2019-04-29T17:05:00.453Z,77.75
2019-04-29T17:07:34.454Z,80.47
2019-04-29T17:10:19.826Z,657.25
2019-04-29T17:12:56.125Z,88.07
2019-04-29T17:15:52.351Z,124.62
2019-04-29T17:18:22.503Z,83.35
2019-04-29T17:21:04.697Z,84.62
2019-04-29T17:23:31.442Z,92.40
2019-04-29T17:26:05.315Z,94.60
2019-04-29T17:28:40.566Z,88.30
2019-04-29T17:31:17.107Z,94.70
2019-04-29T17:33:54.552Z,107.55
2019-04-29T17:36:28.716Z,90.30
2019-04-29T17:39:03.618Z,95.97
2019-04-29T17:41:38.825Z,100.75
2019-04-29T17:44:18.769Z,97.35
2019-04-29T17:47:00.267Z,108.57
2019-04-29T17:49:36.189Z,120.25
2019-04-29T17:52:11.432Z,125.22
2019-04-29T17:54:46.715Z,108.22
2019-04-29T17:57:30.754Z,113.65
2019-04-29T18:00:00.618Z,124.40
2019-04-29T18:02:57.367Z,115.85
2019-04-29T18:05:34.536Z,120.35
2019-04-29T18:08:13.732Z,127.02
2019-04-29T18:11:06.518Z,113.72
2019-04-29T18:13:35.808Z,120.77
2019-04-29T18:16:18.510Z,121.70
2019-04-29T18:19:02.707Z,126.87
2019-04-29T18:21:56.081Z,130.55
2019-04-29T18:24:45.268Z,122.90
2019-04-29T18:27:25.200Z,152.65
2019-04-29T18:29:58.935Z,151.78
2019-04-29T18:32:56.247Z,125.82
2019-04-29T18:35:29.861Z,129.38
2019-04-29T18:38:03.508Z,123.92
2019-04-29T18:40:41.949Z,141.90
2019-04-29T18:43:12.811Z,150.27
2019-04-29T18:45:55.887Z,145.65
2019-04-29T18:48:21.790Z,148.10
2019-04-29T18:50:57.061Z,151.80
2019-04-29T18:53:32.511Z,162.62
2019-04-29T18:56:06.635Z,322.48
2019-04-29T18:58:42.111Z,191.98
2019-04-29T19:01:18.309Z,259.70
2019-04-29T19:04:10.175Z,159.97
2019-04-29T19:06:40.837Z,150.27
2019-04-29T19:09:18.531Z,185.28
2019-04-29T19:11:53.100Z,171.13
2019-04-29T19:14:28.306Z,173.57
2019-04-29T19:17:02.107Z,172.57
2019-04-29T19:19:39.231Z,185.20
2019-04-29T19:22:12.033Z,191.53
2019-04-29T19:24:48.067Z,201.82
2019-04-29T19:27:21.611Z,188.72
2019-04-29T19:29:56.997Z,184.87
2019-04-29T19:32:30.437Z,174.85
2019-04-29T19:35:05.250Z,212.70
2019-04-29T19:37:40.031Z,213.52
2019-04-29T19:40:15.033Z,228.60
2019-04-29T19:42:49.119Z,221.32
2019-04-29T19:45:23.093Z,212.38
2019-04-29T19:47:56.713Z,212.15
2019-04-29T19:50:30.313Z,194.28
2019-04-29T19:53:04.912Z,198.85
2019-04-29T19:55:42.207Z,166.85
2019-04-29T19:58:15.591Z,180.50
2019-04-29T20:00:50.202Z,186.00
2019-04-29T20:03:35.014Z,225.82
2019-04-29T20:06:08.723Z,197.10
2019-04-29T20:08:53.841Z,236.77
2019-04-29T20:11:18.859Z,216.80
2019-04-29T20:14:02.004Z,198.43
2019-04-29T20:16:56.381Z,193.72
2019-04-29T20:19:37.522Z,208.75
2019-04-29T20:22:13.159Z,224.10
2019-04-29T20:24:49.762Z,201.75
2019-04-29T20:27:26.201Z,232.20
2019-04-29T20:29:57.663Z,229.23
2019-04-29T20:32:32.152Z,269.07
2019-04-29T20:35:08.873Z,249.15
2019-04-29T20:37:43.486Z,186.25
2019-04-29T20:40:17.809Z,187.50
2019-04-29T20:42:51.806Z,175.55
2019-04-29T20:45:28.892Z,224.95
2019-04-29T20:48:01.110Z,184.87
2019-04-29T20:50:35.502Z,166.10
2019-04-29T20:53:12.083Z,165.43
2019-04-29T20:55:46.985Z,161.88
2019-04-29T20:58:23.596Z,174.05
2019-04-29T21:01:02.832Z,175.18
2019-04-29T21:03:32.530Z,154.30
2019-04-29T21:06:06.365Z,157.88
2019-04-29T21:08:40.027Z,167.65
2019-04-29T21:11:21.082Z,152.32
2019-04-29T21:13:57.783Z,151.87
2019-04-29T21:16:36.310Z,252.82
2019-04-29T21:19:09.935Z,146.32
2019-04-29T21:21:45.839Z,163.20
2019-04-29T21:24:20.506Z,144.68
2019-04-29T21:26:55.332Z,127.85
2019-04-29T21:29:29.856Z,70.08
2019-04-29T21:32:05.704Z,60.38
2019-04-29T21:34:40.993Z,68.67
2019-04-29T21:37:20.245Z,60.88
2019-04-29T21:39:55.405Z,64.47
2019-04-29T21:42:37.036Z,58.20
2019-04-29T21:45:12.606Z,76.55
2019-04-29T21:47:53.065Z,107.17
2019-04-29T21:50:21.764Z,119.55
2019-04-29T21:53:01.703Z,69.45
2019-04-29T21:55:31.948Z,77.05
2019-04-29T21:58:05.818Z,115.75
2019-04-29T22:00:39.774Z,114.20
2019-04-29T22:03:15.580Z,93.52
2019-04-29T22:05:53.642Z,116.37
2019-04-29T22:08:29.836Z,90.97
2019-04-29T22:11:05.105Z,85.42
2019-04-29T22:13:39.042Z,81.60
2019-04-29T22:16:15.893Z,68.47
2019-04-29T22:18:51.894Z,67.65
2019-04-29T22:21:26.096Z,61.15
2019-04-29T22:23:59.991Z,73.78
2019-04-29T22:26:35.011Z,88.22
2019-04-29T22:29:15.942Z,74.22
2019-04-29T22:31:49.755Z,74.87
2019-04-29T22:34:25.203Z,76.72
2019-04-29T22:37:01.085Z,71.97
2019-04-29T22:39:35.649Z,65.57
2019-04-29T22:42:16.965Z,50.85
2019-04-29T22:44:52.531Z,58.50
2019-04-29T22:47:27.020Z,55.78
2019-04-29T22:50:03.137Z,35.30
2019-04-29T22:52:36.841Z,31.57
2019-04-29T22:55:11.666Z,32.08
2019-04-29T22:57:46.913Z,99.60
2019-04-29T23:00:27.930Z,32.78
2019-04-29T23:03:02.071Z,27.37
2019-04-29T23:05:32.997Z,42.55
2019-04-29T23:08:11.425Z,38.08
2019-04-29T23:10:45.637Z,33.95
2019-04-29T23:13:19.754Z,31.05
2019-04-29T23:15:53.911Z,30.52
2019-04-29T23:18:41.043Z,31.82
2019-04-29T23:21:17.945Z,31.02
2019-04-29T23:24:02.185Z,31.12
2019-04-29T23:26:40.830Z,32.45
2019-04-29T23:29:11.302Z,35.23
2019-04-29T23:31:45.437Z,36.85
2019-04-29T23:34:19.194Z,37.17
2019-04-29T23:36:52.835Z,36.98
2019-04-29T23:39:26.335Z,41.50
2019-04-29T23:42:04.653Z,41.75
2019-04-29T23:44:37.932Z,43.85
2019-04-29T23:47:12.939Z,39.55
2019-04-29T23:49:46.878Z,49.58
2019-04-29T23:52:20.510Z,48.78
2019-04-29T23:54:54.612Z,46.53
2019-04-29T23:57:42.799Z,51.50
